Map

Track Data

SID SEASON NUMBER BASIN SUBBASIN NAME ISO_TIME NATURE LAT LON WMO_WIND WMO_PRES WMO_AGENCY TRACK_TYPE DIST2LAND LANDFALL IFLAG USA_AGENCY USA_ATCF_ID USA_LAT USA_LON USA_RECORD USA_STATUS USA_WIND USA_PRES USA_SSHS USA_R34_NE USA_R34_SE USA_R34_SW USA_R34_NW USA_R50_NE USA_R50_SE USA_R50_SW USA_R50_NW USA_R64_NE USA_R64_SE USA_R64_SW USA_R64_NW USA_POCI USA_ROCI USA_RMW USA_EYE TOKYO_LAT TOKYO_LON TOKYO_GRADE TOKYO_WIND TOKYO_PRES TOKYO_R50_DIR TOKYO_R50_LONG TOKYO_R50_SHORT TOKYO_R30_DIR TOKYO_R30_LONG TOKYO_R30_SHORT TOKYO_LAND CMA_LAT CMA_LON CMA_CAT CMA_WIND CMA_PRES HKO_LAT HKO_LON HKO_CAT HKO_WIND HKO_PRES NEWDELHI_LAT NEWDELHI_LON NEWDELHI_GRADE NEWDELHI_WIND NEWDELHI_PRES NEWDELHI_CI NEWDELHI_DP NEWDELHI_POCI REUNION_LAT REUNION_LON REUNION_TYPE REUNION_WIND REUNION_PRES REUNION_TNUM REUNION_CI REUNION_RMW REUNION_R34_NE REUNION_R34_SE REUNION_R34_SW REUNION_R34_NW REUNION_R50_NE REUNION_R50_SE REUNION_R50_SW REUNION_R50_NW REUNION_R64_NE REUNION_R64_SE REUNION_R64_SW REUNION_R64_NW BOM_LAT BOM_LON BOM_TYPE BOM_WIND BOM_PRES BOM_TNUM BOM_CI BOM_RMW BOM_R34_NE BOM_R34_SE BOM_R34_SW BOM_R34_NW BOM_R50_NE BOM_R50_SE BOM_R50_SW BOM_R50_NW BOM_R64_NE BOM_R64_SE BOM_R64_SW BOM_R64_NW BOM_ROCI BOM_POCI BOM_EYE BOM_POS_METHOD BOM_PRES_METHOD NADI_LAT NADI_LON NADI_CAT NADI_WIND NADI_PRES WELLINGTON_LAT WELLINGTON_LON WELLINGTON_WIND WELLINGTON_PRES DS824_LAT DS824_LON DS824_STAGE DS824_WIND DS824_PRES TD9636_LAT TD9636_LON TD9636_STAGE TD9636_WIND TD9636_PRES TD9635_LAT TD9635_LON TD9635_WIND TD9635_PRES TD9635_ROCI NEUMANN_LAT NEUMANN_LON NEUMANN_CLASS NEUMANN_WIND NEUMANN_PRES MLC_LAT MLC_LON MLC_CLASS MLC_WIND MLC_PRES USA_GUST BOM_GUST BOM_GUST_PER REUNION_GUST REUNION_GUST_PER USA_SEAHGT USA_SEARAD_NE USA_SEARAD_SE USA_SEARAD_SW USA_SEARAD_NW STORM_SPEED STORM_DIR
1865080S11086 1865 9 SI MM NOT_NAMED 1865-03-21 06:00:00 NR -10.9000 85.6000 main 1795 1795 _____O________ -1 -10.9000 85.6000 99 9.90000 1 0
1865080S11086 1865 9 SI MM NOT_NAMED 1865-03-21 09:00:00 NR -10.8812 85.5800 main 1795 1795 _____P________ -1 -10.8812 85.5800 99 1 296
1865080S11086 1865 9 SI MM NOT_NAMED 1865-03-21 12:00:00 NR -10.8701 85.5499 main 1804 1804 _____P________ -1 -10.8701 85.5499 99 1 275
1865080S11086 1865 9 SI MM NOT_NAMED 1865-03-21 15:00:00 NR -10.8746 85.5000 main 1804 1804 _____P________ -1 -10.8746 85.5000 99 1 256
1865080S11086 1865 9 SI MM NOT_NAMED 1865-03-21 18:00:00 NR -10.9023 85.4201 main 1813 1813 _____P________ -1 -10.9023 85.4201 99 2 246
1865080S11086 1865 9 SI MM NOT_NAMED 1865-03-21 21:00:00 NR -10.9610 85.3003 main 1828 1828 _____P________ -1 -10.9610 85.3003 99 3 241
1865080S11086 1865 9 SI MM NOT_NAMED 1865-03-22 00:00:00 NR -11.0584 85.1305 main 1852 1852 _____P________ -1 -11.0584 85.1305 99 5 238
1865080S11086 1865 9 SI MM NOT_NAMED 1865-03-22 03:00:00 NR -11.2022 84.9005 main 1877 1877 _____P________ -1 -11.2022 84.9005 99 6 237
1865080S11086 1865 9 SI MM NOT_NAMED 1865-03-22 06:00:00 NR -11.4000 84.6000 main 1917 1917 _____O________ -1 -11.4000 84.6000 99 9.90000 8 236
1865080S11086 1865 9 SI MM NOT_NAMED 1865-03-22 09:00:00 NR -11.6562 84.2238 main 1971 1971 _____P________ -1 -11.6562 84.2238 99 10 235
1865080S11086 1865 9 SI MM NOT_NAMED 1865-03-22 12:00:00 NR -11.9623 83.7877 main 2026 2026 _____P________ -1 -11.9623 83.7877 99 11 234
1865080S11086 1865 9 SI MM NOT_NAMED 1865-03-22 15:00:00 NR -12.3066 83.3125 main 2060 2060 _____P________ -1 -12.3066 83.3125 99 12 233
1865080S11086 1865 9 SI MM NOT_NAMED 1865-03-22 18:00:00 NR -12.6775 82.8195 main 2098 2096 _____P________ -1 -12.6775 82.8195 99 12 232
1865080S11086 1865 9 SI MM NOT_NAMED 1865-03-22 21:00:00 NR -13.0635 82.3300 main 2137 2136 _____P________ -1 -13.0635 82.3300 99 12 230
1865080S11086 1865 9 SI MM NOT_NAMED 1865-03-23 00:00:00 NR -13.4533 81.8658 main 2178 2177 _____P________ -1 -13.4533 81.8658 99 12 228
1865080S11086 1865 9 SI MM NOT_NAMED 1865-03-23 03:00:00 NR -13.8358 81.4484 main 2208 2208 _____P________ -1 -13.8358 81.4484 99 11 225
1865080S11086 1865 9 SI MM NOT_NAMED 1865-03-23 06:00:00 NR -14.2000 81.1000 main 2252 2252 _____O________ -1 -14.2000 81.1000 99 9.90000 9 220
1865080S11086 1865 9 SI MM NOT_NAMED 1865-03-23 09:00:00 NR -14.5073 80.8775 main 2285 2285 _____P________ -1 -14.5073 80.8775 99 7 212
1865080S11086 1865 9 SI MM NOT_NAMED 1865-03-23 12:00:00 NR -14.8031 80.7165 main 2319 2319 _____P________ -1 -14.8031 80.7165 99 6 204
1865080S11086 1865 9 SI MM NOT_NAMED 1865-03-23 15:00:00 NR -15.0886 80.6091 main 2352 2352 _____P________ -1 -15.0886 80.6091 99 6 196
1865080S11086 1865 9 SI MM NOT_NAMED 1865-03-23 18:00:00 NR -15.3649 80.5474 main 2386 2386 _____P________ -1 -15.3649 80.5474 99 6 188
1865080S11086 1865 9 SI MM NOT_NAMED 1865-03-23 21:00:00 NR -15.6332 80.5236 main 2408 2408 _____P________ -1 -15.6332 80.5236 99 5 0
1865080S11086 1865 9 SI MM NOT_NAMED 1865-03-24 00:00:00 NR -15.8944 80.5298 main 2442 2441 _____P________ -1 -15.8944 80.5298 99 5 177
1865080S11086 1865 9 SI MM NOT_NAMED 1865-03-24 03:00:00 NR -16.1497 80.5579 main 2451 2443 _____P________ -1 -16.1497 80.5579 99 5 173
1865080S11086 1865 9 SI MM NOT_NAMED 1865-03-24 06:00:00 NR -16.4000 80.6000 main 2443 2435 _____O________ -1 -16.4000 80.6000 99 9.90000 5 173
1865080S11086 1865 9 SI MM NOT_NAMED 1865-03-24 09:00:00 NR -16.6667 80.6155 main 2435 2430 _____P________ -1 -16.6667 80.6155 99 5 174
1865080S11086 1865 9 SI MM NOT_NAMED 1865-03-24 12:00:00 NR -16.9290 80.6522 main 2441 2434 _____P________ -1 -16.9290 80.6522 99 5 170
1865080S11086 1865 9 SI MM NOT_NAMED 1865-03-24 15:00:00 NR -17.1849 80.7063 main 2434 2429 _____P________ -1 -17.1849 80.7063 99 5 167
1865080S11086 1865 9 SI MM NOT_NAMED 1865-03-24 18:00:00 NR -17.4325 80.7739 main 2440 2433 _____P________ -1 -17.4325 80.7739 99 5 164
1865080S11086 1865 9 SI MM NOT_NAMED 1865-03-24 21:00:00 NR -17.6697 80.8509 main 2444 2440 _____P________ -1 -17.6697 80.8509 99 5 162
1865080S11086 1865 9 SI MM NOT_NAMED 1865-03-25 00:00:00 NR -17.8947 80.9336 main 2440 2440 _____P________ -1 -17.8947 80.9336 99 5 160
1865080S11086 1865 9 SI MM NOT_NAMED 1865-03-25 03:00:00 NR -18.1054 81.0180 main 2446 2444 _____P________ -1 -18.1054 81.0180 99 4 159
1865080S11086 1865 9 SI MM NOT_NAMED 1865-03-25 06:00:00 NR -18.3000 81.1000 main 2453 2451 _____O________ -1 -18.3000 81.1000 99 9.90000 4 158
1865080S11086 1865 9 SI MM NOT_NAMED 1865-03-25 09:00:00 NR -18.4771 81.1764 main 2460 2458 _____P________ -1 -18.4771 81.1764 99 4 158
1865080S11086 1865 9 SI MM NOT_NAMED 1865-03-25 12:00:00 NR -18.6384 81.2473 main 2458 2458 _____P________ -1 -18.6384 81.2473 99 3 157
1865080S11086 1865 9 SI MM NOT_NAMED 1865-03-25 15:00:00 NR -18.7861 81.3134 main 2466 2464 _____P________ -1 -18.7861 81.3134 99 3 157
1865080S11086 1865 9 SI MM NOT_NAMED 1865-03-25 18:00:00 NR -18.9225 81.3755 main 2474 2473 _____P________ -1 -18.9225 81.3755 99 3 158
1865080S11086 1865 9 SI MM NOT_NAMED 1865-03-25 21:00:00 NR -19.0498 81.4344 main 2473 2472 _____P________ -1 -19.0498 81.4344 99 3 156
1865080S11086 1865 9 SI MM NOT_NAMED 1865-03-26 00:00:00 NR -19.1703 81.4909 main 2481 2479 _____P________ -1 -19.1703 81.4909 99 3 156
1865080S11086 1865 9 SI MM NOT_NAMED 1865-03-26 03:00:00 NR -19.2863 81.5458 main 2479 2479 _____P________ -1 -19.2863 81.5458 99 3 155
1865080S11086 1865 9 SI MM NOT_NAMED 1865-03-26 06:00:00 NR -19.4000 81.6000 main 2488 _____O________ -1 -19.4000 81.6000 99 9.90000 3 155

About IBTrACS Database

This database is a web-friendly format of International Best Track Archive for Climate Stewardship (IBTrACS), a global best track data archive curated by NOAA dating back to 1842.

Updated: 2021-12-06